Time;durP1;ratioP1;P1;durP2;ratioP2;P2;SDS_P1;SDS_P2;PMS_P1;PMS_P2;Temp;Humidity;BMP_temperature;BMP_pressure;BME280_temperature;BME280_humidity;BME280_pressure;Samples;Min_cycle;Max_cycle;Signal;HPM_P1;HPM_P2
2022/11/13 00:00:26;;;;;;;36.40;19.98;;;;;;;4.69;86.06;99335.50;4969662;28;20042;-83
2022/11/13 00:02:52;;;;;;;31.70;18.63;;;;;;;4.66;85.40;99337.50;4967852;28;20047;-82
2022/11/13 00:05:17;;;;;;;52.88;19.80;;;;;;;4.61;85.75;99337.09;4970263;28;20069;-82
2022/11/13 00:07:43;;;;;;;33.55;19.48;;;;;;;4.59;85.89;99336.41;4969344;28;20034;-82
2022/11/13 00:10:08;;;;;;;37.97;19.08;;;;;;;4.63;86.53;99333.41;4970128;28;20030;-82
2022/11/13 00:12:34;;;;;;;28.65;18.08;;;;;;;4.67;85.82;99333.97;4969972;28;20496;-82
2022/11/13 00:14:59;;;;;;;38.60;19.33;;;;;;;4.57;84.72;99334.75;4969896;28;20031;-83
2022/11/13 00:17:25;;;;;;;36.47;18.90;;;;;;;4.61;85.11;99324.09;4969900;28;20115;-82
2022/11/13 00:19:50;;;;;;;31.55;19.20;;;;;;;4.62;85.33;99321.38;4970470;28;20050;-82
2022/11/13 00:22:16;;;;;;;32.92;18.73;;;;;;;4.66;85.22;99334.91;4970013;28;20162;-82
2022/11/13 00:24:41;;;;;;;33.20;18.25;;;;;;;4.68;85.53;99325.19;4969537;28;20054;-82
2022/11/13 00:27:07;;;;;;;25.45;15.23;;;;;;;4.68;85.85;99320.00;4970042;28;20045;-82
2022/11/13 00:29:32;;;;;;;30.10;16.05;;;;;;;4.67;85.92;99318.38;4969299;28;20042;-82
2022/11/13 00:31:58;;;;;;;43.53;16.88;;;;;;;4.62;85.92;99321.38;4969583;28;20117;-83
2022/11/13 00:34:23;;;;;;;32.33;17.45;;;;;;;4.55;86.60;99315.84;4970156;28;20043;-82
2022/11/13 00:36:48;;;;;;;45.35;16.88;;;;;;;4.54;85.61;99313.41;4969832;28;20105;-82
2022/11/13 00:39:14;;;;;;;27.13;16.73;;;;;;;4.62;85.89;99325.72;4968978;28;20059;-82
2022/11/13 00:41:39;;;;;;;41.83;17.60;;;;;;;4.60;85.46;99332.84;4969937;28;20039;-82
2022/11/13 00:44:06;;;;;;;42.85;17.42;;;;;;;4.46;85.37;99311.47;4969930;28;20138;-82
2022/11/13 00:46:32;;;;;;;38.35;17.50;;;;;;;4.27;84.39;99319.19;4969744;28;20884;-83
2022/11/13 00:48:57;;;;;;;74.38;19.25;;;;;;;3.95;84.99;99320.09;4967903;28;20031;-82
2022/11/13 00:51:23;;;;;;;42.03;17.70;;;;;;;3.80;86.53;99302.38;4969586;28;20672;-82
2022/11/13 00:53:48;;;;;;;60.70;18.45;;;;;;;3.81;87.07;99299.66;4969704;28;20425;-82
2022/11/13 00:56:14;;;;;;;32.85;17.40;;;;;;;3.98;87.69;99304.28;4971326;28;20058;-82
2022/11/13 00:58:39;;;;;;;38.88;17.63;;;;;;;4.12;88.15;99307.47;4973244;28;20521;-82
2022/11/13 01:01:10;;;;;;;39.83;17.60;;;;;;;4.20;88.20;99300.69;4973049;28;20037;-82
2022/11/13 01:03:35;;;;;;;34.83;17.48;;;;;;;4.24;88.12;99303.84;4968327;28;20030;-83
2022/11/13 01:06:14;;;;;;;58.08;17.95;;;;;;;4.36;88.18;99308.00;4972977;28;20113;-82
2022/11/13 01:08:40;;;;;;;62.20;18.90;;;;;;;4.42;87.61;99317.88;4970144;28;20352;-82
2022/11/13 01:11:13;;;;;;;72.93;17.70;;;;;;;4.36;86.73;99302.81;4973267;28;20043;-82
2022/11/13 01:13:45;;;;;;;56.53;17.67;;;;;;;4.36;87.27;99295.00;4972972;28;20093;-82
2022/11/13 01:16:12;;;;;;;53.40;17.27;;;;;;;4.34;86.53;99304.72;4971449;28;20426;-83
2022/11/13 01:18:40;;;;;;;46.47;17.63;;;;;;;4.35;86.86;99298.56;4971453;28;20026;-82
2022/11/13 01:21:13;;;;;;;43.13;17.38;;;;;;;4.26;85.81;99289.78;4972764;28;20047;-82
2022/11/13 01:23:39;;;;;;;51.72;17.58;;;;;;;4.28;86.41;99292.25;4972150;28;20035;-82
2022/11/13 01:26:13;;;;;;;42.63;15.02;;;;;;;4.27;85.67;99293.22;4972645;28;20370;-83
2022/11/13 01:28:43;;;;;;;24.33;14.43;;;;;;;4.30;86.13;99285.16;4971277;28;20386;-82
2022/11/13 01:31:15;;;;;;;46.63;15.98;;;;;;;4.30;85.50;99290.34;4970851;28;20058;-82
2022/11/13 01:33:42;;;;;;;34.65;14.98;;;;;;;4.30;85.50;99283.38;4971609;28;20039;-82
2022/11/13 01:36:16;;;;;;;35.53;16.58;;;;;;;4.30;85.28;99279.94;4971047;28;20030;-82
2022/11/13 01:38:41;;;;;;;25.35;14.13;;;;;;;4.23;84.59;99273.63;4971649;28;20089;-83
2022/11/13 01:41:15;;;;;;;37.78;15.02;;;;;;;4.23;84.24;99271.03;4972083;28;20422;-83
2022/11/13 01:43:41;;;;;;;29.95;13.93;;;;;;;4.14;84.28;99264.88;4971176;28;20113;-82
2022/11/13 01:46:20;;;;;;;26.25;14.02;;;;;;;4.10;84.25;99257.47;4972185;28;20382;-82
2022/11/13 01:49:00;;;;;;;32.25;13.98;;;;;;;4.05;83.65;99254.44;4969570;28;20054;-83
2022/11/13 01:51:37;;;;;;;19.63;14.30;;;;;;;3.97;83.51;99245.53;4971908;28;20039;-83
2022/11/13 01:54:10;;;;;;;24.35;13.70;;;;;;;3.95;83.60;99250.00;4970892;28;20277;-83
2022/11/13 01:56:37;;;;;;;21.65;13.82;;;;;;;3.91;83.46;99238.25;4972166;28;20038;-83
2022/11/13 01:59:17;;;;;;;29.90;14.70;;;;;;;3.92;83.63;99233.88;4971535;28;20039;-83
2022/11/13 02:01:43;;;;;;;20.75;13.52;;;;;;;3.85;83.69;99228.38;4968272;28;20151;-82
2022/11/13 02:04:08;;;;;;;19.17;14.65;;;;;;;3.80;83.51;99224.53;4971430;28;20117;-83
2022/11/13 02:07:05;;;;;;;24.17;14.13;;;;;;;3.69;83.99;99223.66;4967185;28;20093;-82
2022/11/13 02:09:37;;;;;;;22.63;13.48;;;;;;;3.67;84.25;99210.00;4969367;28;20042;-82
2022/11/13 02:12:08;;;;;;;20.48;14.30;;;;;;;3.73;84.62;99216.44;4970963;28;20042;-82
2022/11/13 02:14:41;;;;;;;17.95;13.35;;;;;;;3.74;84.82;99210.28;4970796;28;20042;-82
2022/11/13 02:17:14;;;;;;;20.08;13.52;;;;;;;3.67;84.54;99210.00;4971100;28;20042;-82
2022/11/13 02:19:44;;;;;;;17.98;13.18;;;;;;;3.64;84.55;99214.59;4970047;28;20423;-82
2022/11/13 02:22:27;;;;;;;17.60;13.27;;;;;;;3.67;84.85;99214.34;4971295;28;20093;-82
2022/11/13 02:24:57;;;;;;;18.13;12.02;;;;;;;3.69;84.42;99202.06;4971664;28;20046;-82
2022/11/13 02:27:35;;;;;;;20.20;13.05;;;;;;;3.69;84.41;99196.88;4971537;28;20053;-82
2022/11/13 02:30:11;;;;;;;14.70;11.40;;;;;;;3.68;83.87;99198.66;4969967;28;20077;-82
2022/11/13 02:32:44;;;;;;;24.83;12.45;;;;;;;3.64;83.47;99196.44;4970957;28;20080;-82
2022/11/13 02:35:12;;;;;;;16.40;12.25;;;;;;;3.63;83.73;99193.03;4985980;28;20038;-82
2022/11/13 02:37:38;;;;;;;14.80;11.48;;;;;;;3.53;82.30;99192.13;4970932;28;20050;-82
2022/11/13 02:40:04;;;;;;;13.63;10.88;;;;;;;3.19;81.82;99175.97;4970502;28;20039;-83
2022/11/13 02:42:30;;;;;;;14.80;11.45;;;;;;;3.19;84.28;99183.75;4971288;28;20122;-83
2022/11/13 02:44:55;;;;;;;21.40;11.80;;;;;;;3.02;83.42;99176.53;4971228;28;20453;-83
2022/11/13 02:47:21;;;;;;;27.17;12.27;;;;;;;2.75;85.58;99172.63;4971389;28;20034;-83
2022/11/13 02:49:46;;;;;;;35.90;12.57;;;;;;;2.78;86.44;99177.59;4985452;28;20031;-82
2022/11/13 02:52:11;;;;;;;43.42;11.70;;;;;;;2.47;85.78;99171.44;4970549;28;20498;-83
2022/11/13 02:54:37;;;;;;;55.88;13.32;;;;;;;2.30;86.96;99172.78;4970933;28;20046;-82
2022/11/13 02:57:02;;;;;;;65.22;12.98;;;;;;;2.14;88.04;99169.72;4970069;28;20117;-83
2022/11/13 02:59:28;;;;;;;27.60;12.85;;;;;;;2.24;88.97;99172.44;4969206;28;20033;-83
2022/11/13 03:01:54;;;;;;;39.00;12.70;;;;;;;2.13;88.42;99171.50;4968087;28;20050;-82
2022/11/13 03:04:19;;;;;;;37.70;12.00;;;;;;;2.05;89.27;99167.88;4970710;28;20416;-82
2022/11/13 03:06:45;;;;;;;54.28;13.68;;;;;;;2.03;89.77;99159.38;4970630;28;20084;-82
2022/11/13 03:09:10;;;;;;;34.65;11.88;;;;;;;1.95;89.97;99166.94;4969719;28;20503;-82
2022/11/13 03:11:36;;;;;;;65.88;13.10;;;;;;;1.74;90.71;99165.06;4970312;28;20034;-82
2022/11/13 03:14:01;;;;;;;35.80;13.57;;;;;;;1.63;91.85;99167.66;4970194;28;20570;-82
2022/11/13 03:16:27;;;;;;;37.05;11.18;;;;;;;1.54;92.73;99160.56;4970314;28;20466;-83
2022/11/13 03:18:55;;;;;;;80.72;15.00;;;;;;;1.50;92.98;99166.91;4970426;28;20043;-82
2022/11/13 03:21:21;;;;;;;58.75;12.80;;;;;;;1.48;93.20;99161.03;4966287;28;20034;-82
2022/11/13 03:23:46;;;;;;;32.95;13.50;;;;;;;1.48;93.62;99150.69;4969909;28;20045;-81
2022/11/13 03:26:16;;;;;;;28.08;13.13;;;;;;;1.64;93.60;99146.00;4970352;28;20062;-82
2022/11/13 03:28:41;;;;;;;23.75;12.65;;;;;;;1.92;93.84;99154.22;4968930;28;20031;-81
2022/11/13 03:31:08;;;;;;;18.75;9.68;;;;;;;1.78;89.01;99142.34;4969924;28;20049;-83
2022/11/13 03:33:33;;;;;;;26.08;12.18;;;;;;;1.54;89.33;99135.53;4970365;28;20106;-82
2022/11/13 03:35:59;;;;;;;17.45;12.18;;;;;;;1.61;90.70;99141.06;4969889;28;20551;-82
2022/11/13 03:38:25;;;;;;;16.75;11.43;;;;;;;1.65;90.92;99132.13;4970177;28;20069;-82
2022/11/13 03:40:51;;;;;;;17.42;10.70;;;;;;;1.53;89.07;99133.06;4970325;28;20497;-82
2022/11/13 03:43:17;;;;;;;14.18;11.10;;;;;;;1.44;89.67;99139.78;4970043;28;20546;-82
2022/11/13 03:45:46;;;;;;;29.48;11.45;;;;;;;1.38;89.59;99135.06;4970065;28;20122;-82
2022/11/13 03:48:14;;;;;;;36.05;11.27;;;;;;;1.31;89.86;99137.28;4968842;28;20505;-82
2022/11/13 03:50:43;;;;;;;26.15;11.60;;;;;;;1.33;90.72;99132.84;4968408;28;20074;-82
2022/11/13 03:53:10;;;;;;;70.35;13.70;;;;;;;1.40;90.32;99137.53;4968854;28;20114;-82
2022/11/13 03:55:36;;;;;;;22.42;11.77;;;;;;;1.62;91.68;99127.22;4969780;28;20034;-82
2022/11/13 03:58:01;;;;;;;16.38;10.63;;;;;;;1.79;91.31;99125.91;4969591;28;20510;-82
2022/11/13 04:00:29;;;;;;;17.55;10.50;;;;;;;2.00;91.01;99131.19;4974147;28;20064;-83
2022/11/13 04:02:55;;;;;;;29.67;10.95;;;;;;;2.09;89.26;99126.09;4982195;28;20032;-82
2022/11/13 04:05:21;;;;;;;19.88;10.18;;;;;;;2.17;88.90;99119.50;4968873;28;20167;-82
2022/11/13 04:07:47;;;;;;;17.58;10.68;;;;;;;2.22;88.00;99115.63;4969315;28;20076;-82
2022/11/13 04:10:13;;;;;;;19.48;11.15;;;;;;;2.31;87.26;99119.22;4969469;28;20043;-82
2022/11/13 04:12:39;;;;;;;20.80;10.35;;;;;;;2.25;85.57;99112.78;4967763;28;20035;-82
2022/11/13 04:15:06;;;;;;;23.13;10.98;;;;;;;2.05;85.22;99119.53;4969842;28;20035;-82
2022/11/13 04:17:32;;;;;;;12.43;9.55;;;;;;;2.06;87.06;99110.00;4969664;28;20109;-82
2022/11/13 04:19:57;;;;;;;29.98;10.25;;;;;;;2.19;87.21;99121.03;4969148;28;20031;-83
2022/11/13 04:22:23;;;;;;;16.95;10.18;;;;;;;2.30;87.45;99118.41;4968418;28;20047;-82
2022/11/13 04:24:49;;;;;;;29.33;10.23;;;;;;;2.31;85.88;99116.63;4968523;28;20431;-82
2022/11/13 04:27:14;;;;;;;15.48;9.73;;;;;;;2.25;85.41;99102.41;4969610;28;20038;-82
2022/11/13 04:29:40;;;;;;;23.33;10.60;;;;;;;2.35;85.67;99115.47;4968791;28;20514;-82
2022/11/13 04:32:06;;;;;;;17.15;10.60;;;;;;;2.40;85.94;99108.16;4972872;28;20109;-82
2022/11/13 04:34:31;;;;;;;19.25;9.98;;;;;;;2.38;85.40;99095.31;4973095;28;20509;-82
2022/11/13 04:36:57;;;;;;;20.67;10.15;;;;;;;2.40;85.49;99096.03;4972794;28;20578;-82
2022/11/13 04:39:22;;;;;;;15.70;10.20;;;;;;;2.34;85.27;99086.16;4973477;28;20446;-82
2022/11/13 04:44:31;;;;;;;13.70;9.85;;;;;;;2.49;86.26;99086.69;4988281;28;20045;-82
2022/11/13 04:46:57;;;;;;;20.95;10.30;;;;;;;2.47;85.20;99095.53;4972901;28;20038;-82
2022/11/13 04:49:22;;;;;;;21.88;9.27;;;;;;;2.49;85.44;99094.44;4972809;28;20514;-82
2022/11/13 04:51:48;;;;;;;17.85;9.88;;;;;;;2.55;85.75;99095.72;4972739;28;20042;-82
2022/11/13 04:54:13;;;;;;;42.03;11.40;;;;;;;2.33;85.25;99086.25;4978454;28;20169;-82
2022/11/13 04:56:39;;;;;;;24.05;9.82;;;;;;;2.12;84.84;99088.81;4971427;28;20118;-82
2022/11/13 04:59:04;;;;;;;44.50;10.13;;;;;;;1.81;85.28;99093.81;4971193;28;20039;-82
2022/11/13 05:01:30;;;;;;;22.65;9.75;;;;;;;1.97;87.82;99095.19;4969676;28;20046;-82
2022/11/13 05:03:56;;;;;;;37.53;10.30;;;;;;;1.99;86.62;99098.50;4972753;28;20030;-82
2022/11/13 05:06:22;;;;;;;20.70;9.70;;;;;;;2.08;87.16;99097.75;4972634;28;20097;-82
2022/11/13 05:08:47;;;;;;;22.30;9.65;;;;;;;2.08;86.21;99092.56;4971788;28;20031;-82
2022/11/13 05:11:13;;;;;;;34.58;10.02;;;;;;;1.83;85.86;99088.50;4972598;28;20042;-82
2022/11/13 05:13:38;;;;;;;27.27;9.70;;;;;;;1.62;86.62;99083.25;4972041;28;20039;-82
2022/11/13 05:16:08;;;;;;;41.55;10.45;;;;;;;1.34;87.24;99075.03;4972526;28;20490;-82
2022/11/13 05:18:37;;;;;;;60.50;11.30;;;;;;;1.08;88.26;99081.34;4987031;28;20046;-82
2022/11/13 05:21:05;;;;;;;42.72;10.93;;;;;;;1.20;89.77;99075.25;4971926;28;20042;-82
2022/11/13 05:23:31;;;;;;;18.50;8.73;;;;;;;1.37;89.76;99076.53;4971257;28;20500;-82
2022/11/13 05:26:09;;;;;;;68.00;10.30;;;;;;;1.35;88.42;99073.25;4972591;28;20390;-83
2022/11/13 05:28:36;;;;;;;39.08;8.95;;;;;;;1.15;88.50;99072.19;4970988;28;20034;-82
2022/11/13 05:31:13;;;;;;;58.60;10.13;;;;;;;1.13;89.34;99065.47;4972045;28;20046;-82
2022/11/13 05:33:41;;;;;;;20.42;8.52;;;;;;;1.26;89.83;99066.19;4972117;28;20047;-81
2022/11/13 05:36:13;;;;;;;16.38;8.63;;;;;;;1.48;89.82;99062.78;4972148;28;20378;-82
2022/11/13 05:38:40;;;;;;;12.45;8.48;;;;;;;1.58;88.13;99074.09;4971859;28;20058;-82
2022/11/13 05:41:15;;;;;;;14.30;8.52;;;;;;;1.58;87.67;99068.91;4977680;28;20125;-82
2022/11/13 05:43:41;;;;;;;18.23;9.13;;;;;;;1.63;87.20;99061.63;4970897;28;20041;-82
2022/11/13 05:46:18;;;;;;;11.10;8.90;;;;;;;1.66;87.07;99061.38;4971925;28;20057;-82
2022/11/13 05:48:45;;;;;;;13.68;9.13;;;;;;;1.80;87.38;99065.44;4971514;28;20687;-82
2022/11/13 05:51:18;;;;;;;18.73;8.77;;;;;;;1.78;85.47;99044.88;4971844;28;20034;-82
2022/11/13 05:53:44;;;;;;;20.42;8.82;;;;;;;1.58;84.59;99049.03;4971725;28;20050;-81
2022/11/13 05:56:22;;;;;;;15.82;8.23;;;;;;;1.21;85.22;99040.72;4972033;28;20038;-82
2022/11/13 05:58:49;;;;;;;11.20;8.48;;;;;;;0.81;88.35;99037.75;4970176;28;20031;-82
2022/11/13 06:01:27;;;;;;;10.32;8.60;;;;;;;0.85;88.99;99033.19;4971397;28;20031;-82
2022/11/13 06:03:58;;;;;;;10.30;8.32;;;;;;;0.86;88.41;99035.63;4971186;28;20043;-82
2022/11/13 06:06:25;;;;;;;12.98;8.70;;;;;;;1.00;88.86;99025.06;4969790;28;20063;-82
2022/11/13 06:08:53;;;;;;;20.02;8.25;;;;;;;1.04;88.02;99028.25;4970534;28;20037;-82
2022/11/13 06:11:23;;;;;;;10.82;7.95;;;;;;;1.13;88.40;99018.97;4971230;28;20126;-82
2022/11/13 06:13:50;;;;;;;9.70;8.20;;;;;;;1.31;88.69;99025.31;4971575;28;20030;-81
2022/11/13 06:16:26;;;;;;;8.45;7.50;;;;;;;1.40;87.41;99019.44;4971508;28;20071;-81
2022/11/13 06:18:57;;;;;;;9.80;8.48;;;;;;;1.56;86.74;99024.22;4985180;28;20111;-81
2022/11/13 06:21:27;;;;;;;12.18;8.63;;;;;;;1.65;85.48;99023.53;4970248;28;20043;-82
2022/11/13 06:23:53;;;;;;;11.95;8.30;;;;;;;1.68;85.09;99023.31;4969649;28;20046;-82
2022/11/13 06:26:27;;;;;;;17.67;8.52;;;;;;;1.74;85.31;99035.75;4985966;28;20039;-82
2022/11/13 06:28:54;;;;;;;16.77;8.68;;;;;;;1.78;84.83;99024.19;4970462;28;20106;-81
2022/11/13 06:31:23;;;;;;;16.15;8.15;;;;;;;1.82;84.37;99023.03;4968063;28;20062;-82
2022/11/13 06:33:49;;;;;;;35.95;9.63;;;;;;;1.62;84.06;99013.44;4969946;28;20090;-81
2022/11/13 06:36:20;;;;;;;13.68;8.95;;;;;;;1.57;84.48;99012.97;4970799;28;20039;-82
2022/11/13 06:38:49;;;;;;;18.88;7.90;;;;;;;1.68;85.56;99012.97;4970970;28;20035;-81
2022/11/13 06:41:19;;;;;;;20.63;9.25;;;;;;;1.75;85.08;99027.03;4970790;28;20084;-81
2022/11/13 06:43:46;;;;;;;21.08;7.97;;;;;;;1.74;84.17;99015.06;4970949;28;20061;-81
2022/11/13 06:46:20;;;;;;;35.20;8.77;;;;;;;1.85;85.13;99029.72;4968541;28;20054;-82
2022/11/13 06:48:47;;;;;;;23.27;7.97;;;;;;;1.81;84.03;99038.66;4970252;28;20521;-82
2022/11/13 06:51:22;;;;;;;19.52;9.18;;;;;;;1.86;84.73;99026.19;4970445;28;20039;-82
2022/11/13 06:53:48;;;;;;;12.23;7.38;;;;;;;2.00;84.84;99030.28;4970508;28;20031;-82
2022/11/13 06:56:15;;;;;;;30.58;8.52;;;;;;;2.10;84.08;99039.78;4970307;28;20031;-82
2022/11/13 06:58:42;;;;;;;32.25;8.98;;;;;;;2.17;84.09;99027.16;4969121;28;20109;-82
2022/11/13 07:01:17;;;;;;;17.63;8.23;;;;;;;1.84;82.13;99008.19;4970313;28;20118;-81
2022/11/13 07:03:43;;;;;;;16.30;8.38;;;;;;;1.77;83.39;99011.41;4966685;28;20050;-82
2022/11/13 07:06:14;;;;;;;17.23;8.85;;;;;;;1.88;84.73;99007.00;4970278;28;20034;-81
2022/11/13 07:08:41;;;;;;;14.60;8.80;;;;;;;2.05;85.13;99016.03;4967819;28;20031;-82
2022/11/13 07:11:14;;;;;;;11.27;8.07;;;;;;;2.20;84.14;99024.31;4970517;28;20410;-82
2022/11/13 07:13:40;;;;;;;15.80;7.85;;;;;;;2.27;84.20;99006.50;4970117;28;20383;-82
2022/11/13 07:16:08;;;;;;;23.13;8.07;;;;;;;2.29;83.01;99010.63;4969109;28;20050;-82
2022/11/13 07:18:34;;;;;;;21.05;8.75;;;;;;;2.35;83.30;99010.13;4970151;28;20027;-82
2022/11/13 07:21:06;;;;;;;13.27;8.88;;;;;;;2.42;82.73;99015.63;4969611;28;20042;-82
2022/11/13 07:23:35;;;;;;;12.73;7.95;;;;;;;2.45;82.69;99006.78;4969480;28;20034;-81
2022/11/13 07:26:03;;;;;;;14.60;8.80;;;;;;;2.44;83.11;99015.50;4969133;28;20069;-82
2022/11/13 07:28:29;;;;;;;13.88;8.52;;;;;;;2.48;82.43;99017.72;4969759;28;20055;-82
2022/11/13 07:30:59;;;;;;;21.48;8.18;;;;;;;2.43;82.01;98996.56;4985108;28;20087;-82
2022/11/13 07:33:24;;;;;;;49.58;9.60;;;;;;;2.31;80.81;98988.03;4970477;28;20503;-82
2022/11/13 07:35:54;;;;;;;19.55;8.60;;;;;;;2.33;82.35;98993.88;4969934;28;20110;-82
2022/11/13 07:38:19;;;;;;;12.93;8.30;;;;;;;2.36;81.95;98983.28;4969498;28;20027;-82
2022/11/13 07:40:45;;;;;;;15.80;8.80;;;;;;;2.37;82.59;98990.09;4968515;28;20038;-82
2022/11/13 07:43:10;;;;;;;17.42;8.38;;;;;;;2.53;83.18;98994.03;4976110;28;20402;-82
2022/11/13 07:45:36;;;;;;;16.42;8.70;;;;;;;2.52;82.17;98989.78;4969049;28;20058;-82
2022/11/13 07:48:03;;;;;;;22.85;7.68;;;;;;;2.56;82.50;98986.81;4969852;28;20089;-82
2022/11/13 07:50:36;;;;;;;24.85;8.60;;;;;;;2.56;82.12;98978.22;4969732;28;20066;-82
2022/11/13 07:53:05;;;;;;;10.32;8.18;;;;;;;2.55;82.79;98984.38;4969287;28;20030;-82
2022/11/13 07:55:33;;;;;;;17.08;7.85;;;;;;;2.69;83.67;98984.03;4969561;28;20046;-82
2022/11/13 07:58:00;;;;;;;45.85;9.07;;;;;;;2.71;81.46;98974.38;4969628;28;20039;-82
2022/11/13 08:00:28;;;;;;;13.95;9.00;;;;;;;2.77;82.76;98971.28;4968214;28;20043;-82
2022/11/13 08:02:53;;;;;;;9.35;6.57;;;;;;;2.52;80.65;98958.72;4967630;28;20057;-82
2022/11/13 08:05:19;;;;;;;24.77;8.57;;;;;;;2.31;83.19;98966.50;4968943;28;20046;-83
2022/11/13 08:07:50;;;;;;;15.55;8.80;;;;;;;2.41;83.96;98967.38;4969038;28;20178;-82
2022/11/13 08:10:18;;;;;;;;;;;;;;;2.58;83.63;98965.97;4969392;28;20047;-82
2022/11/13 08:12:44;;;;;;;8.68;7.18;;;;;;;2.69;83.37;98965.91;4969186;28;19914;-82
2022/11/13 08:15:11;;;;;;;23.58;7.70;;;;;;;2.37;82.23;98969.41;4968458;28;20131;-82
2022/11/13 08:17:37;;;;;;;18.73;6.32;;;;;;;2.39;83.15;98957.13;4968371;28;20043;-83
2022/11/13 08:20:04;;;;;;;19.15;9.05;;;;;;;2.25;83.87;98954.06;4967087;28;20046;-82
2022/11/13 08:22:30;;;;;;;16.92;8.18;;;;;;;2.38;85.12;98960.66;4969826;28;20153;-83
2022/11/13 08:24:56;;;;;;;12.98;8.32;;;;;;;2.63;85.50;98953.47;4969442;28;20487;-83
2022/11/13 08:27:22;;;;;;;21.23;8.55;;;;;;;2.66;83.16;98943.69;4969762;28;20034;-83
2022/11/13 08:29:50;;;;;;;14.30;6.47;;;;;;;2.25;83.87;98936.75;4969290;28;20055;-82
2022/11/13 08:32:18;;;;;;;17.98;7.25;;;;;;;1.98;84.77;98929.50;4968929;28;20100;-83
2022/11/13 08:34:44;;;;;;;11.05;8.15;;;;;;;2.18;86.64;98925.25;4969346;28;20490;-83
2022/11/13 08:37:09;;;;;;;8.25;7.43;;;;;;;2.27;85.77;98921.09;4969174;28;20046;-82
2022/11/13 08:39:35;;;;;;;11.75;6.75;;;;;;;2.02;84.75;98907.56;4969397;28;20034;-82
2022/11/13 08:42:02;;;;;;;22.25;8.27;;;;;;;2.01;85.96;98921.47;4966210;28;20035;-82
2022/11/13 08:44:27;;;;;;;24.70;9.27;;;;;;;1.99;86.73;98918.19;4969687;28;20034;-82
2022/11/13 08:46:53;;;;;;;26.05;8.85;;;;;;;2.11;86.70;98909.41;4969698;28;20045;-82
2022/11/13 08:49:18;;;;;;;13.95;8.60;;;;;;;2.41;86.71;98908.66;4968343;28;20080;-82
2022/11/13 08:51:44;;;;;;;12.05;9.35;;;;;;;2.70;86.15;98915.75;4968989;28;20035;-82
2022/11/13 08:54:09;;;;;;;10.50;8.40;;;;;;;2.84;84.95;98899.03;4968474;28;20455;-83
2022/11/13 08:56:35;;;;;;;11.65;8.40;;;;;;;2.76;84.94;98906.63;4959200;28;20057;-82
2022/11/13 08:59:00;;;;;;;8.45;7.15;;;;;;;2.57;85.61;98894.41;4966544;28;20117;-83
2022/11/13 09:01:26;;;;;;;15.48;8.55;;;;;;;2.52;86.72;98889.63;4964320;28;20435;-83
2022/11/13 09:03:51;;;;;;;8.60;5.82;;;;;;;2.42;87.51;98881.81;4967405;28;20174;-82
2022/11/13 09:06:17;;;;;;;10.57;6.65;;;;;;;2.38;88.34;98862.28;4968541;28;20050;-83
2022/11/13 09:08:42;;;;;;;10.93;8.30;;;;;;;2.48;89.19;98857.16;4968718;28;20030;-82
2022/11/13 09:11:08;;;;;;;11.32;9.52;;;;;;;2.84;88.75;98863.56;4968233;28;20078;-82
2022/11/13 09:13:34;;;;;;;12.50;8.52;;;;;;;3.10;87.01;98861.31;4968505;28;20085;-83
2022/11/13 09:16:02;;;;;;;10.15;7.70;;;;;;;3.08;86.42;98842.50;4968647;28;20399;-82
2022/11/13 09:18:28;;;;;;;7.45;6.20;;;;;;;3.07;86.86;98847.81;4972610;28;20041;-83
2022/11/13 09:20:59;;;;;;;8.13;5.97;;;;;;;2.97;86.87;98852.97;4971785;28;20046;-82
2022/11/13 09:23:25;;;;;;;11.43;8.60;;;;;;;3.07;87.60;98847.81;4970939;28;20053;-84
2022/11/13 09:25:50;;;;;;;5.60;4.97;;;;;;;3.02;87.21;98839.63;4971705;28;20451;-84
2022/11/13 09:28:16;;;;;;;6.00;3.67;;;;;;;2.95;87.93;98827.19;4972175;28;20114;-84
2022/11/13 09:30:41;;;;;;;6.40;5.75;;;;;;;3.00;89.02;98825.97;4972578;28;20101;-83
2022/11/13 09:33:09;;;;;;;10.10;7.93;;;;;;;3.15;89.55;98820.25;4971923;28;20470;-83
2022/11/13 09:38:10;;;;;;;6.75;5.63;;;;;;;3.33;89.51;98817.81;4972407;28;20432;-83
2022/11/13 09:40:52;;;;;;;12.65;8.38;;;;;;;3.58;89.50;98823.41;4971244;28;20070;-83
2022/11/13 09:43:30;;;;;;;14.32;9.32;;;;;;;3.89;88.37;98850.00;4963449;28;20035;-83
2022/11/13 09:46:07;;;;;;;14.27;10.80;;;;;;;4.35;88.57;98845.81;4970629;28;20039;-83
2022/11/13 09:48:42;;;;;;;11.75;9.25;;;;;;;4.73;87.43;98855.25;4971952;28;20383;-83
2022/11/13 09:51:15;;;;;;;10.98;9.18;;;;;;;4.98;84.10;98844.19;4971644;28;20042;-83
2022/11/13 09:53:42;;;;;;;13.10;9.52;;;;;;;5.34;84.33;98839.84;4969568;28;20109;-83
2022/11/13 09:56:42;;;;;;;11.30;8.80;;;;;;;5.59;83.45;98838.28;4971198;28;20081;-83
2022/11/13 09:59:21;;;;;;;13.80;10.10;;;;;;;5.80;81.93;98839.75;4971063;28;20114;-83
2022/11/13 10:02:09;;;;;;;11.88;9.75;;;;;;;6.00;81.10;98841.25;4966501;28;21186;-83
2022/11/13 10:05:00;;;;;;;13.45;9.90;;;;;;;6.15;80.35;98839.69;4972137;28;20034;-83
2022/11/13 10:07:56;;;;;;;13.57;9.43;;;;;;;6.36;80.79;98841.16;4968670;28;20082;-83
2022/11/13 10:11:05;;;;;;;12.10;9.15;;;;;;;6.50;79.74;98837.94;4970506;28;20576;-83
2022/11/13 10:13:46;;;;;;;11.23;9.18;;;;;;;6.66;79.25;98832.81;4972385;28;20081;-83
2022/11/13 10:16:37;;;;;;;10.88;9.32;;;;;;;6.86;79.89;98837.78;4970483;28;20058;-83
2022/11/13 10:19:33;;;;;;;11.48;9.10;;;;;;;7.06;78.90;98841.75;4964920;28;20038;-83
2022/11/13 10:22:11;;;;;;;11.27;9.02;;;;;;;7.20;77.13;98830.72;4971528;28;20038;-83
2022/11/13 10:24:43;;;;;;;12.02;9.45;;;;;;;7.17;76.01;98828.41;4968884;28;20062;-84
2022/11/13 10:27:14;;;;;;;12.57;10.02;;;;;;;7.32;78.43;98812.97;4970940;28;20039;-83
2022/11/13 10:29:42;;;;;;;11.75;9.35;;;;;;;7.50;77.84;98818.03;4970325;28;20038;-84
2022/11/13 10:32:28;;;;;;;12.43;9.88;;;;;;;7.64;74.96;98813.97;4970832;28;20046;-83
2022/11/13 10:35:04;;;;;;;10.98;9.82;;;;;;;7.75;74.39;98811.84;4970876;28;20509;-83
2022/11/13 10:37:29;;;;;;;10.77;9.30;;;;;;;7.90;76.01;98811.16;4970900;28;20561;-83
2022/11/13 10:39:55;;;;;;;11.90;9.50;;;;;;;8.05;74.44;98814.75;4970523;28;20098;-83
2022/11/13 10:42:35;;;;;;;11.80;9.73;;;;;;;8.17;76.75;98818.63;4970905;28;20042;-83
2022/11/13 10:45:02;;;;;;;13.13;10.68;;;;;;;8.18;74.17;98807.19;4971128;28;20035;-83
2022/11/13 10:47:31;;;;;;;10.40;8.75;;;;;;;8.31;74.53;98797.03;4970139;28;20039;-83
2022/11/13 10:50:18;;;;;;;10.05;8.57;;;;;;;8.60;75.60;98806.13;4969983;28;20031;-83
2022/11/13 10:52:47;;;;;;;9.48;8.38;;;;;;;8.71;74.20;98792.69;4968749;28;20085;-84
2022/11/13 10:55:38;;;;;;;9.50;8.48;;;;;;;8.88;72.22;98785.56;4967622;28;20049;-83
2022/11/13 10:58:16;;;;;;;11.13;9.03;;;;;;;9.04;72.08;98779.41;4967631;28;20121;-84
2022/11/13 11:00:47;;;;;;;9.90;8.57;;;;;;;9.23;72.07;98781.56;4967382;28;20277;-83
2022/11/13 11:03:24;;;;;;;11.15;8.77;;;;;;;9.42;71.61;98782.13;4980880;28;20394;-84
2022/11/13 11:06:01;;;;;;;10.02;9.02;;;;;;;9.51;71.85;98781.06;4969110;28;20784;-83
2022/11/13 11:08:33;;;;;;;10.18;8.05;;;;;;;9.63;71.61;98779.66;4968135;28;20077;-83
2022/11/13 11:14:31;;;;;;;10.13;9.13;;;;;;;9.89;71.57;98764.34;4969663;28;19921;-83
2022/11/13 11:17:02;;;;;;;10.63;8.57;;;;;;;9.94;70.00;98732.38;4966559;28;20038;-84
2022/11/13 11:19:36;;;;;;;9.90;8.90;;;;;;;10.04;67.73;98732.09;4969833;28;20035;-84
2022/11/13 11:22:15;;;;;;;10.60;9.15;;;;;;;10.20;69.57;98726.69;4967851;28;20121;-83
2022/11/13 11:25:19;;;;;;;10.05;8.38;;;;;;;10.28;69.74;98707.47;4968577;28;20038;-83
2022/11/13 11:27:54;;;;;;;10.80;8.82;;;;;;;10.20;68.15;98703.09;4977344;28;20545;-84
2022/11/13 11:30:28;;;;;;;10.43;9.25;;;;;;;10.19;69.35;98699.66;4969735;28;20602;-84
2022/11/13 11:33:24;;;;;;;11.27;9.32;;;;;;;10.14;69.89;98714.31;4965854;28;20062;-80
2022/11/13 11:35:59;;;;;;;10.70;9.13;;;;;;;10.36;70.33;98712.59;4967627;28;20035;-80
2022/11/13 11:38:35;;;;;;;11.57;9.85;;;;;;;10.60;71.31;98693.91;4964922;28;20113;-83
2022/11/13 11:41:13;;;;;;;12.15;8.82;;;;;;;10.89;69.02;98708.75;4967561;28;20038;-83
2022/11/13 11:43:48;;;;;;;10.85;8.95;;;;;;;11.17;67.69;98700.16;4966199;28;20061;-83
2022/11/13 11:46:22;;;;;;;12.02;9.02;;;;;;;11.26;66.40;98693.75;4967382;28;20142;-83
2022/11/13 11:48:49;;;;;;;10.35;9.27;;;;;;;11.38;67.69;98676.47;4967283;28;20042;-83